Latest Coastal Weather Observations for Port Kembla Harbour

IDN60701

Issued at 9:51 am EST Saturday 4 July 2015 (issued every 10 minutes, with the page automatically refreshed every 10 minutes)

About coastal observations | Map of coastal stations | Coastal observations for NSW | Marine services | Other Formats
Station Details ID: 068253 Name: PORT KEMBLA NTC AWS Lat: -34.47 Lon: 150.91 Height: 0.0 m
Data from the previous 72 hours. | See also: Recent months for locations in New South Wales
Date/Time
EST
Temp

°C
Wind Pressure Rain
since 9am
mm
Weather Cloud Vis
km
Sea
Height
m
Swell
Dir
 
Speed
knots
Gust
knots
hPa Trend Height
m
Period
s
Dir
04/09:30am 9.6 W 6 9 1021.9 - - - - - - - - -
04/09:00am 9.9 WNW 9 12 1021.8 - - - - - - - - -
04/08:30am 9.3 W 8 12 1021.6 - - - - - - - - -
04/08:00am 9.1 W 9 11 1021.8 - - - - - - - - -
04/07:30am 9.4 WNW 10 15 1021.7 - - - - - - - - -
04/07:00am 9.6 WNW 11 13 1021.4 - - - - - - - - -
04/06:30am 9.7 W 7 9 1021.4 - - - - - - - - -
04/06:00am 10.5 WNW 9 12 1021.1 - - - - - - - - -
04/05:30am 9.0 NE 2 4 1021.0 - - - - - - - - -
04/05:00am 9.0 W 8 11 1021.1 - - - - - - - - -
04/04:30am 9.9 SW 3 9 1021.5 - - - - - - - - -
04/04:00am 9.7 W 7 10 1021.7 - - - - - - - - -
04/03:30am 8.8 W 5 8 1022.2 - - - - - - - - -
04/03:00am 9.7 W 5 7 1022.5 - - - - - - - - -
04/02:30am 9.0 W 5 6 1022.8 - - - - - - - - -
04/02:00am 8.2 WSW 5 7 1023.2 - - - - - - - - -
04/01:30am 7.9 SW 3 4 1023.0 - - - - - - - - -
04/01:00am 8.0 SW 4 5 1023.5 - - - - - - - - -
04/12:30am 7.9 SW 3 4 1023.9 - - - - - - - - -
04/12:00am 8.1 WSW 4 5 1024.2 - - - - - - - - -
 
Date/Time
EST
Temp

°C
Wind Pressure Rain
since 9am
mm
Weather Cloud Vis
km
Sea
Height
m
Swell
Dir
 
Speed
knots
Gust
knots
hPa Trend Height
m
Period
s
Dir
03/11:30pm 8.6 W 4 5 1024.6 - - - - - - - - -
03/11:00pm 8.4 WSW 6 7 1024.8 - - - - - - - - -
03/10:30pm 8.7 WSW 5 6 1024.8 - - - - - - - - -
03/10:00pm 8.5 WSW 5 6 1025.0 - - - - - - - - -
03/09:30pm 8.7 WSW 5 6 1025.0 - - - - - - - - -
03/09:00pm 8.9 WSW 5 5 1024.9 - - - - - - - - -
03/08:30pm 9.1 WSW 4 5 1025.1 - - - - - - - - -
03/08:00pm 9.4 SW 4 5 1025.0 - - - - - - - - -
03/07:30pm 9.9 W 3 4 1025.0 - - - - - - - - -
03/07:00pm 10.3 WSW 4 5 1025.1 - - - - - - - - -
03/06:30pm 10.5 W 5 6 1025.0 - - - - - - - - -
03/06:00pm 12.4 S 2 4 1024.7 - - - - - - - - -
03/05:30pm 12.5 S 3 5 1024.6 - - - - - - - - -
03/05:00pm 12.4 S 3 6 1024.4 - - - - - - - - -
03/04:30pm 12.8 S 4 7 1024.5 - - - - - - - - -
03/04:00pm 13.0 SSE 4 7 1024.5 - - - - - - - - -
03/03:30pm 13.2 SSE 5 9 1024.3 - - - - - - - - -
03/03:00pm 13.3 S 5 11 1024.1 - - - - - - - - -
03/02:30pm 13.6 SSE 5 10 1024.1 - - - - - - - - -
03/02:00pm 13.4 SSE 6 11 1024.2 - - - - - - - - -
03/01:30pm 13.7 S 4 9 1024.5 - - - - - - - - -
03/01:00pm 13.4 SSW 4 9 1025.0 - - - - - - - - -
03/12:30pm 13.5 SSW 5 9 1025.3 - - - - - - - - -
03/12:00pm 13.2 SSW 7 12 1025.7 - - - - - - - - -
03/11:30am 12.8 SW 8 14 1026.2 - - - - - - - - -
03/11:00am 12.5 WSW 10 16 1026.4 - - - - - - - - -
03/10:30am 11.9 WSW 12 17 1026.7 - - - - - - - - -
03/10:00am 11.8 WSW 12 15 1026.6 - - - - - - - - -
03/09:30am 11.6 WSW 12 15 1026.5 - - - - - - - - -
03/09:00am 10.9 WSW 10 14 1026.2 - - - - - - - - -
03/08:30am 10.3 W 8 12 1026.0 - - - - - - - - -
03/08:00am 9.8 W 10 13 1025.7 - - - - - - - - -
03/07:30am 9.2 WSW 7 9 1025.4 - - - - - - - - -
03/07:00am 9.2 WSW 6 9 1025.2 - - - - - - - - -
03/06:30am 9.7 WSW 8 11 1024.9 - - - - - - - - -
03/06:00am 9.5 WSW 8 11 1024.5 - - - - - - - - -
03/05:30am 9.8 WSW 10 13 1024.1 - - - - - - - - -
03/05:00am 9.5 W 10 14 1024.1 - - - - - - - - -
03/04:30am 9.9 WSW 10 14 1023.9 - - - - - - - - -
03/04:00am 9.8 WSW 9 15 1023.7 - - - - - - - - -
03/03:30am 9.8 WSW 11 16 1023.3 - - - - - - - - -
03/03:00am 9.4 WSW 7 10 1023.4 - - - - - - - - -
03/02:30am 9.9 WSW 9 13 1023.4 - - - - - - - - -
03/02:00am 9.9 WSW 8 11 1023.4 - - - - - - - - -
03/01:30am 9.5 WSW 9 13 1023.5 - - - - - - - - -
03/01:00am 9.5 W 11 14 1023.5 - - - - - - - - -
03/12:30am 10.4 W 12 15 1023.6 - - - - - - - - -
03/12:00am 10.4 WSW 13 19 1023.5 - - - - - - - - -
 
Date/Time
EST
Temp

°C
Wind Pressure Rain
since 9am
mm
Weather Cloud Vis
km
Sea
Height
m
Swell
Dir
 
Speed
knots
Gust
knots
hPa Trend Height
m
Period
s
Dir
02/11:30pm 10.8 WSW 14 20 1023.6 - - - - - - - - -
02/11:00pm 11.1 WSW 12 17 1023.6 - - - - - - - - -
02/10:30pm 11.4 WSW 13 19 1023.3 - - - - - - - - -
02/10:00pm 11.5 WSW 12 19 1023.0 - - - - - - - - -
02/09:30pm 11.4 WSW 12 17 1023.1 - - - - - - - - -
02/09:00pm 11.7 WSW 12 17 1022.9 - - - - - - - - -
02/08:30pm 11.9 WSW 10 13 1022.5 - - - - - - - - -
02/08:00pm 12.1 WSW 13 19 1022.0 - - - - - - - - -
02/07:30pm 12.3 WSW 13 18 1021.2 - - - - - - - - -
02/07:00pm 12.5 WSW 13 19 1020.8 - - - - - - - - -
02/06:30pm 12.3 SW 10 13 1020.1 - - - - - - - - -
02/06:00pm 12.7 SW 11 16 1019.6 - - - - - - - - -
02/05:30pm 13.0 W 18 27 1018.1 - - - - - - - - -
02/05:00pm 13.3 W 21 27 1017.2 - - - - - - - - -
02/04:30pm 13.5 W 20 28 1016.9 - - - - - - - - -
02/04:00pm 13.7 W 19 27 1016.7 - - - - - - - - -
02/03:30pm 14.3 W 19 25 1017.2 - - - - - - - - -
02/03:00pm 14.9 W 22 28 1017.0 - - - - - - - - -
02/02:30pm 15.1 W 20 27 1016.2 - - - - - - - - -
02/02:00pm 15.2 W 18 26 1015.8 - - - - - - - - -
02/01:30pm 15.3 W 21 28 1015.6 - - - - - - - - -
02/01:02pm 15.4 W 17 27 1016.2 - - - - - - - - -
02/01:00pm 15.5 W 17 26 1016.1 - - - - - - - - -
02/12:30pm 15.5 W 13 22 1016.5 - - - - - - - - -
02/12:05pm 15.3 W 15 25 1016.8 - - - - - - - - -
02/12:00pm 15.7 WSW 13 20 1016.8 - - - - - - - - -
02/11:30am 14.8 W 16 27 1017.3 - - - - - - - - -
02/11:29am 14.8 W 16 27 1017.3 - - - - - - - - -
02/11:00am 14.5 W 17 25 1017.8 - - - - - - - - -
02/10:56am 14.4 W 15 25 1017.9 - - - - - - - - -
02/10:30am 13.4 W 19 25 1018.4 - - - - - - - - -
02/10:00am 13.1 W 19 26 1018.3 - - - - - - - - -
02/09:30am 12.2 W 21 27 1018.0 - - - - - - - - -
02/09:00am 11.6 WSW 20 26 1017.9 - - - - - - - - -
02/08:30am 11.3 W 16 25 1018.4 - - - - - - - - -
02/08:00am 11.2 W 13 20 1018.5 - - - - - - - - -
02/07:30am 10.7 WNW 7 11 1018.6 - - - - - - - - -
02/07:00am 11.0 W 9 14 1018.8 - - - - - - - - -
02/06:30am 10.7 W 14 18 1018.3 - - - - - - - - -
02/06:00am 10.1 W 11 15 1018.5 - - - - - - - - -
02/05:30am 9.9 W 13 18 1018.8 - - - - - - - - -
02/05:00am 9.7 W 11 14 1018.7 - - - - - - - - -
02/04:30am 9.4 W 8 11 1018.9 - - - - - - - - -
02/04:00am 9.3 W 11 17 1019.0 - - - - - - - - -
02/03:30am 9.2 W 10 13 1019.5 - - - - - - - - -
02/03:00am 9.2 W 5 7 1019.8 - - - - - - - - -
02/02:30am 9.6 WSW 7 9 1019.6 - - - - - - - - -
02/02:00am 10.1 WNW 7 10 1019.8 - - - - - - - - -
02/01:30am 10.0 WNW 12 20 1019.9 - - - - - - - - -
02/01:00am 10.3 WNW 13 18 1020.1 - - - - - - - - -
02/12:30am 9.8 WNW 10 16 1020.5 - - - - - - - - -
02/12:00am 10.0 W 13 18 1020.9 - - - - - - - - -
 
Date/Time
EST
Temp

°C
Wind Pressure Rain
since 9am
mm
Weather Cloud Vis
km
Sea
Height
m
Swell
Dir
 
Speed
knots
Gust
knots
hPa Trend Height
m
Period
s
Dir
01/11:30pm 9.7 WNW 9 12 1021.1 - - - - - - - - -
01/11:00pm 9.7 W 10 12 1021.6 - - - - - - - - -
01/10:30pm 10.1 W 14 19 1022.0 - - - - - - - - -
01/10:00pm 10.3 W 12 16 1021.7 - - - - - - - - -
01/09:30pm 10.5 W 10 13 1022.0 - - - - - - - - -
01/09:00pm 11.3 W 9 11 1022.0 - - - - - - - - -
01/08:30pm 11.5 W 8 9 1022.6 - - - - - - - - -
01/08:00pm 11.9 W 9 11 1022.8 - - - - - - - - -

Other Formats:

Comma delimited format used in spreadsheet applications
http://www.bom.gov.au/fwo/IDN60701/IDN60701.95745.axf

JavaScript Object Notation format (JSON) in row-major order
http://www.bom.gov.au/fwo/IDN60701/IDN60701.95745.json